Nearby METAR Reports

 

KSJC - San Jose, California, USA
Distance from station: NE 9mi, 14km
Updated: Mon, 21-Oct-2019 1:53am CDT
Clear
Clear
 Wind from NNW
Wind: NNW 3 mph , 6 km/h
Temperature: 57°F , 14°C
Dew Point: 54°F , 12°C
Humidity: 88%
Barometer: 30.14 inHg , 1020.7 hPa
Clouds: Clear
Visibility: 10 miles , 16 km
2019/10/21 06:53 KSJC 210653Z 33003KT 10SM CLR 14/12 A3014 RMK AO2 SLP206 LAST T01440117
KNUQ - Moffett Nas/Mtn, California, USA
Distance from station: N 9mi, 14km
Updated: Mon, 21-Oct-2019 1:56am CDT

 
Barometer: 30.15 inHg , 1021 hPa
2019/10/21 06:56 KNUQ 210656Z A3015 RMK AO2 SLP214 PWINO $
 
KPAO - Palo Alto, California, USA
Distance from station: NNW 14mi, 23km
Updated: Sun, 20-Oct-2019 10:47pm CDT
NOT Current
Clear
Clear
 Wind from calm
Wind: Calm
Temperature: 57°F , 14°C
Dew Point: 48°F , 9°C
Humidity: 72%
Barometer: 30.12 inHg , 1020 hPa
Clouds: Clear
Visibility: 10 miles , 16 km
2019/10/21 03:47 KPAO 210347Z 00000KT 10SM SKC 14/09 A3012 RMK LAST
KRHV - San Jose/Reid, California, USA
Distance from station: ENE 12mi, 19km
Updated: Sun, 20-Oct-2019 11:50pm CDT
NOT Current
Clear
Clear
 Wind from calm
Wind: Calm
Temperature: 61°F , 16°C
Dew Point: 50°F , 10°C
Humidity: 68%
Barometer: 30.13 inHg , 1020.3 hPa
Clouds: Clear
Visibility: 10 miles , 16 km
2019/10/21 04:50 KRHV 210450Z 00000KT 10SM SKC 16/10 A3013 RMK LAST
 
KOAK - Oakland, California, USA
Distance from station: NNW 31mi, 50km
Updated: Mon, 21-Oct-2019 1:53am CDT
Clear
Clear
 Wind from calm
Wind: Calm
Temperature: 57°F , 14°C
Dew Point: 52°F , 11°C
Humidity: 82%
Barometer: 30.14 inHg , 1020.7 hPa
Clouds: Clear
Visibility: 10 miles , 16 km
2019/10/21 06:53 KOAK 210653Z 00000KT 10SM CLR 14/11 A3014 RMK AO2 SLP206 T01390106
KSQL - San Carlos Airpo, California, USA
Distance from station: NW 21mi, 34km
Updated: Sun, 20-Oct-2019 10:58pm CDT
NOT Current
Clear
Clear
 Wind from calm
Wind: Calm
Temperature: 63°F , 17°C
Dew Point: 48°F , 9°C
Humidity: 59%
Barometer: 30.12 inHg , 1020 hPa
Clouds: Clear
Visibility: 10 miles , 16 km
2019/10/21 03:58 KSQL 210358Z 00000KT 10SM SKC 17/09 A3012 RMK LAST
 
KSFO - San Francisco, California, USA
Distance from station: NW 30mi, 49km
Updated: Mon, 21-Oct-2019 1:56am CDT
Clear
Clear
 Wind from WNW
Wind: WNW 6 mph , 9 km/h
Temperature: 57°F , 14°C
Dew Point: 52°F , 11°C
Humidity: 82%
Barometer: 30.13 inHg , 1020.3 hPa
Clouds: Clear
Visibility: 10 miles , 16 km
2019/10/21 06:56 KSFO 210656Z 29005KT 10SM CLR 14/11 A3013 RMK AO2 SLP204 T01440106
KE16 - San Martin, California, USA
Distance from station: ESE 27mi, 43km
Updated: Mon, 21-Oct-2019 1:55am CDT
Clear
Clear
 Wind from N
Wind: N 5 mph , 7 km/h
Temperature: 57°F , 14°C
Dew Point: 48°F , 9°C
Humidity: 72%
Barometer: 30.15 inHg , 1021 hPa
Clouds: Clear
Visibility: 10 miles , 16 km
2019/10/21 06:55 KE16 210655Z AUTO 35004KT 10SM CLR 14/09 A3015 RMK AO2
 
KWVI - Watsonville, California, USA
Distance from station: SSE 27mi, 44km
Updated: Mon, 21-Oct-2019 1:53am CDT
Clear
Clear
 Wind from calm
Wind: Calm
Temperature: 54°F , 12°C
Dew Point: 46°F , 8°C
Humidity: 77%
Barometer: 30.13 inHg , 1020.3 hPa
Clouds: Clear
Visibility: 10 miles , 16 km
2019/10/21 06:53 KWVI 210653Z AUTO 00000KT 10SM CLR 12/08 A3013 RMK AO2 SLP201 T01220083
KHAF - Half Moon Bay, California, USA
Distance from station: WNW 31mi, 50km
Updated: Mon, 21-Oct-2019 2:00am CDT
Clear
Clear
 Wind from ENE
Wind: ENE 5 mph , 7 km/h
Temperature: 52°F , 11°C
Dew Point: 48°F , 9°C
Humidity: 88%
Barometer: 30.14 inHg , 1020.7 hPa
Clouds: Clear
Visibility: 10 miles , 16 km
2019/10/21 07:00 KHAF 210700Z AUTO 07004KT 10SM CLR 11/09 A3014 RMK AO2
 
KHWD - Hayward, California, USA
Distance from station: N 28mi, 44km
Updated: Mon, 21-Oct-2019 1:54am CDT
Clear
Clear
 Wind from E
Wind: E 3 mph , 6 km/h
Temperature: 57°F , 14°C
Dew Point: 50°F , 10°C
Humidity: 77%
Barometer: 30.13 inHg , 1020.3 hPa
Clouds: Clear
Visibility: 10 miles , 16 km
2019/10/21 06:54 KHWD 210654Z AUTO 08003KT 10SM CLR 14/10 A3013 RMK AO2 SLP213 T01390100
KLVK - Livermore, California, USA
Distance from station: NNE 31mi, 51km
Updated: Mon, 21-Oct-2019 1:53am CDT
Clear
Clear
 Wind from calm
Wind: Calm
Temperature: 55°F , 13°C
Dew Point: 43°F , 6°C
Humidity: 63%
Barometer: 30.13 inHg , 1020.3 hPa
Clouds: Clear
Visibility: 10 miles , 16 km
2019/10/21 06:53 KLVK 210653Z AUTO 00000KT 10SM CLR 13/06 A3013 RMK AO2 SLP200 T01280061